METAR Data
IDs: Format: Raw Decoded Include TAF

Data at: 1401 UTC 12 Dec 2018

PFYU 121356Z AUTO 04006KT 4SM -SN BR OVC027 M18/M20 A2921 RMK AO2 SLP917 P0000 T11781200 FZRANO
PFYU 121320Z AUTO 04006KT 3SM -SN BR OVC029 M18/M20 A2920 RMK AO2 P0000 FZRANO
PFYU 121314Z AUTO 04006KT 2 1/2SM -SN BR OVC031 M18/M20 A2920 RMK AO2 P0000 FZRANO
PFYU 121256Z AUTO 03007KT 3SM -SN BR OVC035 M18/M20 A2920 RMK AO2 SLP913 P0000 T11781200 FZRANO
PFYU 121211Z AUTO 04008KT 4SM -SN BR SCT025 OVC036 M17/M19 A2919 RMK AO2 P0000 FZRANO
PFYU 121156Z AUTO 03007KT 3SM -SN BR BKN023 OVC033 M17/M19 A2919 RMK AO2 SLP909 P0000 60000 T11721194 11172 21178 51017 FZRANO
PFYU 121132Z AUTO 04007KT 2SM -SN BR SCT016 OVC021 M17/M19 A2919 RMK AO2 P0000 FZRANO
PFYU 121110Z AUTO 04006KT 1 3/4SM -SN BR BKN016 OVC024 M17/M19 A2918 RMK AO2 P0000 FZRANO
PFYU 121056Z AUTO 04007KT 2SM -SN BR FEW016 BKN022 OVC037 M17/M19 A2918 RMK AO2 VIS 1 1/2V3 SLP906 P0000 T11721194 FZRANO
PFYU 121049Z AUTO 04006KT 2 1/2SM -SN BR SCT024 BKN028 OVC038 M17/M19 A2918 RMK AO2 VIS 2V3 P0000 FZRANO
PFYU 120956Z AUTO 05007KT 4SM -SN BR OVC037 M17/M19 A2916 RMK AO2 SLP899 P0000 T11721194 FZRANO
PFYU 120856Z AUTO 04009KT 5SM -SN BR CLR M18/M20 A2914 RMK AO2 SLP892 P0000 60000 T11781200 411611206 53017 FZRANO
PFYU 120756Z AUTO 04007KT 4SM -SN BR CLR M18/M20 A2913 RMK AO2 SLP887 P0000 T11781200 FZRANO
PFYU 120744Z AUTO 04006KT 4SM -SN BR FEW018 SCT025 M18/M20 A2912 RMK AO2 P0000 FZRANO
PFYU 120707Z AUTO 04006KT 3SM -SN BR BKN021 BKN030 OVC039 M18/M19 A2911 RMK AO2 P0000 FZRANO
PFYU 120656Z AUTO 04007KT 3SM -SN BR SCT023 BKN030 OVC039 M17/M19 A2911 RMK AO2 SLP881 P0000 T11721194 FZRANO
PFYU 120645Z AUTO 04007KT 3SM -SN BR SCT029 OVC040 M17/M19 A2910 RMK AO2 P0000 FZRANO
PFYU 120631Z AUTO 04007KT 3SM -SN BR BKN029 OVC036 M17/M19 A2910 RMK AO2 P0000 FZRANO
PFYU 120556Z AUTO 04007KT 2 1/2SM -SN BR BKN023 OVC029 M17/M19 A2909 RMK AO2 SLP875 P0000 60000 T11721189 11161 21172 53016 FZRANO
PFYU 120516Z AUTO 04007KT 2 1/2SM -SN BR BKN023 OVC029 M17/M19 A2908 RMK AO2 P0000 FZRANO
PFYU 120507Z AUTO 04009KT 3SM -SN BR BKN026 OVC035 M17/M19 A2908 RMK AO2 P0000 FZRANO
PFYU 120456Z AUTO 04009KT 3SM -SN BR SCT030 OVC035 M17/M19 A2907 RMK AO2 SLP870 P0000 T11671189 FZRANO
PFYU 120408Z AUTO 04010KT 3SM -SN BR SCT023 BKN030 OVC100 M17/M19 A2906 RMK AO2 P0000 FZRANO
PFYU 120356Z 05011KT 5SM -SN BR BKN027 OVC100 M17/M19 A2906 RMK AO2 SLP865 P0000 T11671189
PFYU 120256Z 04012KT 8SM -SN OVC100 M17/M18 A2904 RMK AO2 SLP860 P0000 60000 T11671183 51012
PFYU 120156Z 05010G17KT 5SM -SN BR OVC100 M17/M18 A2903 RMK AO2 SNB27 SLP856 P0000 T11671183
PFYU 120056Z 04010KT 10SM FEW036 BKN110 M17/M19 A2902 RMK AO2 SLP852 T11671189
PFYU 112356Z 04010KT 10SM FEW036 OVC110 M17/M19 A2901 RMK AO2 SLP847 T11671189 11167 21206 53013
PFYU 112256Z 04009KT 8SM SCT100 M17/M19 A2899 RMK AO2 SLP842 T11721189
PFYU 112156Z 03006KT 9SM FEW080 SCT120 M18/M20 A2898 RMK AO2 SLP839 T11831200
PFYU 111956Z 03003KT 10SM FEW060 M20/M22 A2896 RMK AO2 SLP830 T12001222
PFYU 111856Z 04004KT 10SM CLR M19/M22 A2894 RMK AO2 SLP825 T11941217
PFYU 111756Z 04003KT 10SM CLR M21/M22 A2894 RMK AO2 SLP824 T12061222 11183 21206 55002
PFYU 111656Z 04004KT 10SM CLR M20/M22 A2893 RMK AO2 SLP822 T12001222
PFYU 111556Z AUTO 03004KT 10SM CLR M20/M22 A2894 RMK AO2 SLP824 T12001217 FZRANO
PFYU 111456Z AUTO 01005KT 10SM CLR M19/M21 A2894 RMK AO2 SLP826 T11941211 56014 FZRANO
PFYU 111356Z AUTO 04006KT 10SM CLR M19/M21 A2895 RMK AO2 SLP828 T11941211 FZRANO
PFYU 111256Z AUTO 04004KT 10SM CLR M19/M21 A2897 RMK AO2 SLP834 T11891206 FZRANO
PFYU 111156Z AUTO 04006KT 10SM FEW043 M19/M21 A2899 RMK AO2 SLP839 7//// T11891211 11183 21200 56012 FZRANO
PFYU 111056Z AUTO 04007KT 10SM CLR M18/M21 A2899 RMK AO2 SLP841 T11831206 FZRANO
PFYU 110956Z AUTO 04005KT 10SM BKN036 M19/M21 A2901 RMK AO2 SLP847 T11891206 FZRANO
PFYU 110856Z AUTO 04006KT 10SM CLR M19/M22 A2902 RMK AO2 SLP851 T11941217 411331256 56018 FZRANO
PFYU 110756Z AUTO 04005KT 10SM CLR M19/M21 A2903 RMK AO2 SLP855 T11891211 FZRANO
PFYU 110656Z AUTO 04007KT 10SM CLR M18/M21 A2905 RMK AO2 SLP860 T11831206 FZRANO
PFYU 110556Z AUTO 03005KT 10SM CLR M19/M21 A2908 RMK AO2 SLP870 T11891206 11150 21189 58015 FZRANO
PFYU 110456Z AUTO 04006KT 10SM CLR M18/M20 A2909 RMK AO2 SLP876 T11831200 FZRANO
PFYU 110356Z 04007KT 10SM CLR M18/M19 A2911 RMK AO2 SLP882 T11781194
PFYU 110256Z 04009KT 10SM CLR M17/M18 A2912 RMK AO2 SLP886 T11671183 58011